createdAt,value
2019-06-20T00:00:16.139Z,16.16
2019-06-20T00:01:16.106Z,16.16
2019-06-20T00:02:16.176Z,16.14
2019-06-20T00:03:16.238Z,16.13
2019-06-20T00:04:16.156Z,16.13
2019-06-20T00:05:16.157Z,16.13
2019-06-20T00:06:16.228Z,16.13
2019-06-20T00:07:16.231Z,16.11
2019-06-20T00:08:16.159Z,16.09
2019-06-20T00:09:16.159Z,16.09
2019-06-20T00:10:16.238Z,16.09
2019-06-20T00:11:16.163Z,16.09
2019-06-20T00:12:16.181Z,16.06
2019-06-20T00:13:16.156Z,16.06
2019-06-20T00:14:16.227Z,16.05
2019-06-20T00:15:16.230Z,16.03
2019-06-20T00:16:16.159Z,16.03
2019-06-20T00:17:16.155Z,16.02
2019-06-20T00:18:16.230Z,16.00
2019-06-20T00:19:16.164Z,16.00
2019-06-20T00:20:16.186Z,16.00
2019-06-20T00:21:16.180Z,15.97
2019-06-20T00:22:16.231Z,15.95
2019-06-20T00:23:16.168Z,15.95
2019-06-20T00:24:16.175Z,15.97
2019-06-20T00:25:16.233Z,15.99
2019-06-20T00:26:16.306Z,15.97
2019-06-20T00:27:16.238Z,15.99
2019-06-20T00:28:16.190Z,15.99
2019-06-20T00:29:16.236Z,15.97
2019-06-20T00:30:16.171Z,15.99
2019-06-20T00:31:16.242Z,16.03
2019-06-20T00:32:16.178Z,16.06
2019-06-20T00:33:16.254Z,16.10
2019-06-20T00:34:16.180Z,16.10
2019-06-20T00:35:16.180Z,16.11
2019-06-20T00:36:16.193Z,16.10
2019-06-20T00:37:16.188Z,16.10
2019-06-20T00:38:16.215Z,16.09
2019-06-20T00:39:16.192Z,16.09
2019-06-20T00:40:16.320Z,16.09
2019-06-20T00:41:16.192Z,16.10
2019-06-20T00:42:16.264Z,16.09
2019-06-20T00:43:18.222Z,16.07
2019-06-20T00:44:16.185Z,16.06
2019-06-20T00:45:16.279Z,16.06
2019-06-20T00:46:16.256Z,16.03
2019-06-20T00:47:16.263Z,16.00
2019-06-20T00:48:16.287Z,15.97
2019-06-20T00:49:16.199Z,15.94
2019-06-20T00:50:16.266Z,15.93
2019-06-20T00:51:16.206Z,15.91
2019-06-20T00:52:16.260Z,15.91
2019-06-20T00:53:16.272Z,15.91
2019-06-20T00:54:16.379Z,15.91
2019-06-20T00:55:16.274Z,15.90
2019-06-20T00:56:16.319Z,15.90
2019-06-20T00:57:16.310Z,15.90
2019-06-20T00:58:16.206Z,15.90
2019-06-20T00:59:16.234Z,15.90
2019-06-20T01:00:16.202Z,15.88
2019-06-20T01:01:16.209Z,15.87
2019-06-20T01:02:16.274Z,15.87
2019-06-20T01:03:16.285Z,15.86
2019-06-20T01:04:16.208Z,15.83
2019-06-20T01:05:16.345Z,15.83
2019-06-20T01:06:16.208Z,15.84
2019-06-20T01:07:16.271Z,15.87
2019-06-20T01:08:16.275Z,15.86
2019-06-20T01:09:16.219Z,15.87
2019-06-20T01:10:16.211Z,15.84
2019-06-20T01:11:16.301Z,15.83
2019-06-20T01:12:16.282Z,15.83
2019-06-20T01:13:32.263Z,15.84
2019-06-20T01:14:16.394Z,15.82
2019-06-20T01:15:16.211Z,15.83
2019-06-20T01:16:16.218Z,15.84
2019-06-20T01:17:16.277Z,15.84
2019-06-20T01:18:16.279Z,15.84
2019-06-20T01:19:16.232Z,15.84
2019-06-20T01:20:16.214Z,15.86
2019-06-20T01:21:16.222Z,15.87
2019-06-20T01:22:16.288Z,15.86
2019-06-20T01:23:16.294Z,15.84
2019-06-20T01:24:16.354Z,15.84
2019-06-20T01:25:16.221Z,15.82
2019-06-20T01:26:16.290Z,15.77
2019-06-20T01:27:16.294Z,15.73
2019-06-20T01:28:16.315Z,15.72
2019-06-20T01:29:16.227Z,15.70
2019-06-20T01:30:16.221Z,15.68
2019-06-20T01:31:16.303Z,15.65
2019-06-20T01:32:16.302Z,15.66
2019-06-20T01:33:16.297Z,15.73
2019-06-20T01:34:16.210Z,15.75
2019-06-20T01:35:16.289Z,15.76
2019-06-20T01:36:16.238Z,15.76
2019-06-20T01:37:16.290Z,15.76
2019-06-20T01:38:16.220Z,15.80
2019-06-20T01:39:16.281Z,15.82
2019-06-20T01:40:16.289Z,15.82
2019-06-20T01:41:16.319Z,15.79
2019-06-20T01:42:16.224Z,15.76
2019-06-20T01:43:16.216Z,15.75
2019-06-20T01:44:16.288Z,15.76
2019-06-20T01:45:16.194Z,15.75
2019-06-20T01:46:16.228Z,15.76
2019-06-20T01:47:16.262Z,15.77
2019-06-20T01:48:16.218Z,15.80
2019-06-20T01:49:16.290Z,15.77
2019-06-20T01:50:16.251Z,15.76
2019-06-20T01:51:16.203Z,15.73
2019-06-20T01:52:16.301Z,15.72
2019-06-20T01:53:16.227Z,15.70
2019-06-20T01:54:16.210Z,15.70
2019-06-20T01:55:16.258Z,15.69
2019-06-20T01:56:16.316Z,15.66
2019-06-20T01:57:16.236Z,15.70
2019-06-20T01:58:16.317Z,15.68
2019-06-20T01:59:16.234Z,15.68
2019-06-20T02:00:16.324Z,15.64
2019-06-20T02:01:16.238Z,15.62
2019-06-20T02:02:16.315Z,15.58
2019-06-20T02:03:16.236Z,15.55
2019-06-20T02:04:16.322Z,15.51
2019-06-20T02:05:16.249Z,15.47
2019-06-20T02:06:16.248Z,15.44
2019-06-20T02:07:16.322Z,15.37
2019-06-20T02:08:16.258Z,15.35
2019-06-20T02:09:16.253Z,15.32
2019-06-20T02:10:16.255Z,15.28
2019-06-20T02:11:16.271Z,15.26
2019-06-20T02:12:16.331Z,15.26
2019-06-20T02:13:16.327Z,15.25
2019-06-20T02:14:16.314Z,15.25
2019-06-20T02:15:16.286Z,15.21
2019-06-20T02:16:16.221Z,15.17
2019-06-20T02:17:16.268Z,15.15
2019-06-20T02:18:16.318Z,15.14
2019-06-20T02:19:16.195Z,15.14
2019-06-20T02:20:16.262Z,15.15
2019-06-20T02:21:16.253Z,15.11
2019-06-20T02:22:16.301Z,15.10
2019-06-20T02:23:16.253Z,15.08
2019-06-20T02:24:16.344Z,15.06
2019-06-20T02:25:16.265Z,15.06
2019-06-20T02:26:16.339Z,15.03
2019-06-20T02:27:16.282Z,14.98
2019-06-20T02:28:16.331Z,14.98
2019-06-20T02:29:16.287Z,14.96
2019-06-20T02:30:16.305Z,14.98
2019-06-20T02:31:16.296Z,14.96
2019-06-20T02:32:16.271Z,14.98
2019-06-20T02:33:16.295Z,14.96
2019-06-20T02:34:16.262Z,14.94
2019-06-20T02:35:16.344Z,14.94
2019-06-20T02:36:16.341Z,14.94
2019-06-20T02:37:16.278Z,14.91
2019-06-20T02:38:16.336Z,14.91
2019-06-20T02:39:16.352Z,14.91
2019-06-20T02:40:16.339Z,14.87
2019-06-20T02:41:16.347Z,14.87
2019-06-20T02:42:16.344Z,14.86
2019-06-20T02:43:16.345Z,14.86
2019-06-20T02:44:29.240Z,14.83
2019-06-20T02:45:16.346Z,14.82
2019-06-20T02:46:16.234Z,14.83
2019-06-20T02:47:16.355Z,14.80
2019-06-20T02:48:16.330Z,14.79
2019-06-20T02:49:16.330Z,14.76
2019-06-20T02:50:16.349Z,14.76
2019-06-20T02:51:16.246Z,14.72
2019-06-20T02:52:16.350Z,14.71
2019-06-20T02:53:16.310Z,14.69
2019-06-20T02:54:16.290Z,14.65
2019-06-20T02:55:16.382Z,14.62
2019-06-20T02:56:16.363Z,14.61
2019-06-20T02:57:16.364Z,14.60
2019-06-20T02:58:16.382Z,14.58
2019-06-20T02:59:16.293Z,14.58
2019-06-20T03:00:16.389Z,14.58
2019-06-20T03:01:16.299Z,14.57
2019-06-20T03:02:16.305Z,14.57
2019-06-20T03:03:16.295Z,14.60
2019-06-20T03:04:16.285Z,14.64
2019-06-20T03:05:16.296Z,14.65
2019-06-20T03:06:16.355Z,14.68
2019-06-20T03:07:16.355Z,14.71
2019-06-20T03:08:16.285Z,14.73
2019-06-20T03:09:16.358Z,14.78
2019-06-20T03:10:16.291Z,14.79
2019-06-20T03:11:16.368Z,14.80
2019-06-20T03:12:16.292Z,14.82
2019-06-20T03:13:16.367Z,14.86
2019-06-20T03:14:16.297Z,14.83
2019-06-20T03:15:16.370Z,14.84
2019-06-20T03:16:16.298Z,14.84
2019-06-20T03:17:16.301Z,14.84
2019-06-20T03:18:16.364Z,14.89
2019-06-20T03:19:16.427Z,14.96
2019-06-20T03:20:16.298Z,15.02
2019-06-20T03:21:16.388Z,15.07
2019-06-20T03:22:16.371Z,15.10
2019-06-20T03:23:16.300Z,15.11
2019-06-20T03:24:16.370Z,15.10
2019-06-20T03:25:16.376Z,15.13
2019-06-20T03:26:16.298Z,15.10
2019-06-20T03:27:16.371Z,15.08
2019-06-20T03:28:16.303Z,15.08
2019-06-20T03:29:16.373Z,15.14
2019-06-20T03:30:16.307Z,15.15
2019-06-20T03:31:16.399Z,15.17
2019-06-20T03:32:16.302Z,15.19
2019-06-20T03:33:16.310Z,15.19
2019-06-20T03:34:16.250Z,15.21
2019-06-20T03:35:16.249Z,15.21
2019-06-20T03:36:16.317Z,15.21
2019-06-20T03:37:16.266Z,15.21
2019-06-20T03:38:16.249Z,15.22
2019-06-20T03:39:16.331Z,15.24
2019-06-20T03:40:16.317Z,15.26
2019-06-20T03:41:16.327Z,15.28
2019-06-20T03:42:16.309Z,15.29
2019-06-20T03:43:16.296Z,15.31
2019-06-20T03:44:16.309Z,15.33
2019-06-20T03:45:16.349Z,15.35
2019-06-20T03:46:16.285Z,15.35
2019-06-20T03:47:16.325Z,15.37
2019-06-20T03:48:16.294Z,15.39
2019-06-20T03:49:16.320Z,15.40
2019-06-20T03:50:16.273Z,15.42
2019-06-20T03:51:16.328Z,15.44
2019-06-20T03:52:16.417Z,15.47
2019-06-20T03:53:16.288Z,15.48
2019-06-20T03:54:16.298Z,15.48
2019-06-20T03:55:16.330Z,15.51
2019-06-20T03:56:16.383Z,15.53
2019-06-20T03:57:16.358Z,15.55
2019-06-20T03:58:16.392Z,15.57
2019-06-20T03:59:16.292Z,15.57
2019-06-20T04:00:16.394Z,15.57
2019-06-20T04:01:16.333Z,15.58
2019-06-20T04:02:16.344Z,15.57
2019-06-20T04:03:16.385Z,15.58
2019-06-20T04:04:16.371Z,15.58
2019-06-20T04:05:16.339Z,15.57
2019-06-20T04:06:16.345Z,15.57
2019-06-20T04:07:16.345Z,15.57
2019-06-20T04:08:16.416Z,15.58
2019-06-20T04:09:16.412Z,15.58
2019-06-20T04:10:16.414Z,15.58
2019-06-20T04:11:16.349Z,15.57
2019-06-20T04:12:16.347Z,15.58
2019-06-20T04:13:16.399Z,15.59
2019-06-20T04:14:16.380Z,15.62
2019-06-20T04:15:19.373Z,15.65
2019-06-20T04:16:16.303Z,15.66
2019-06-20T04:17:16.284Z,15.68
2019-06-20T04:18:16.412Z,15.70
2019-06-20T04:19:16.311Z,15.72
2019-06-20T04:20:16.287Z,15.73
2019-06-20T04:21:16.310Z,15.73
2019-06-20T04:22:16.409Z,15.76
2019-06-20T04:23:16.384Z,15.76
2019-06-20T04:24:16.422Z,15.77
2019-06-20T04:25:16.442Z,15.77
2019-06-20T04:26:16.358Z,15.79
2019-06-20T04:27:16.432Z,15.80
2019-06-20T04:28:16.427Z,15.82
2019-06-20T04:29:16.428Z,15.82
2019-06-20T04:30:16.354Z,15.80
2019-06-20T04:31:16.369Z,15.80
2019-06-20T04:32:16.434Z,15.79
2019-06-20T04:33:16.361Z,15.77
2019-06-20T04:34:16.282Z,15.77
2019-06-20T04:35:16.370Z,15.79
2019-06-20T04:36:16.356Z,15.82
2019-06-20T04:37:16.290Z,15.84
2019-06-20T04:38:16.421Z,15.88
2019-06-20T04:39:19.491Z,15.93
2019-06-20T04:40:16.353Z,16.00
2019-06-20T04:41:16.322Z,16.06
2019-06-20T04:42:18.601Z,16.10
2019-06-20T04:43:16.356Z,16.14
2019-06-20T04:44:16.340Z,16.20
2019-06-20T04:45:16.373Z,16.24
2019-06-20T04:46:16.430Z,16.27
2019-06-20T04:47:16.364Z,16.24
2019-06-20T04:48:16.356Z,16.25
2019-06-20T04:49:19.631Z,16.28
2019-06-20T04:50:16.362Z,16.32
2019-06-20T04:51:16.441Z,16.33
2019-06-20T04:52:16.429Z,16.31
2019-06-20T04:53:16.358Z,16.29
2019-06-20T04:54:16.452Z,16.31
2019-06-20T04:55:16.456Z,16.31
2019-06-20T04:56:16.452Z,16.32
2019-06-20T04:57:16.384Z,16.33
2019-06-20T04:58:16.447Z,16.38
2019-06-20T04:59:16.453Z,16.44
2019-06-20T05:00:16.375Z,16.50
2019-06-20T05:01:16.451Z,16.55
2019-06-20T05:02:16.451Z,16.51
2019-06-20T05:03:16.383Z,16.54
2019-06-20T05:04:16.390Z,16.55
2019-06-20T05:05:16.354Z,16.59
2019-06-20T05:06:16.388Z,16.59
2019-06-20T05:07:16.391Z,16.59
2019-06-20T05:08:16.392Z,16.55
2019-06-20T05:09:16.406Z,16.57
2019-06-20T05:10:16.463Z,16.61
2019-06-20T05:11:16.470Z,16.59
2019-06-20T05:12:16.467Z,16.58
2019-06-20T05:13:16.399Z,16.58
2019-06-20T05:14:16.518Z,16.61
2019-06-20T05:15:16.322Z,16.59
2019-06-20T05:16:16.432Z,16.62
2019-06-20T05:17:16.410Z,16.63
2019-06-20T05:18:16.390Z,16.66
2019-06-20T05:19:16.554Z,16.68
2019-06-20T05:20:16.398Z,16.72
2019-06-20T05:21:16.330Z,16.76
2019-06-20T05:22:16.425Z,16.79
2019-06-20T05:23:16.327Z,16.79
2019-06-20T05:24:16.491Z,16.79
2019-06-20T05:25:16.478Z,16.79
2019-06-20T05:26:16.406Z,16.80
2019-06-20T05:27:16.471Z,16.79
2019-06-20T05:28:16.472Z,16.79
2019-06-20T05:29:16.452Z,16.76
2019-06-20T05:30:16.403Z,16.79
2019-06-20T05:31:16.409Z,16.79
2019-06-20T05:32:16.527Z,16.81
2019-06-20T05:33:16.475Z,16.84
2019-06-20T05:34:16.462Z,16.87
2019-06-20T05:35:16.459Z,16.85
2019-06-20T05:36:16.412Z,16.87
2019-06-20T05:37:16.507Z,16.90
2019-06-20T05:38:16.408Z,16.92
2019-06-20T05:39:16.486Z,16.95
2019-06-20T05:40:16.471Z,16.92
2019-06-20T05:41:16.394Z,16.90
2019-06-20T05:42:16.409Z,16.90
2019-06-20T05:43:16.354Z,16.91
2019-06-20T05:44:16.491Z,16.90
2019-06-20T05:45:16.433Z,16.92
2019-06-20T05:46:16.424Z,16.98
2019-06-20T05:47:16.495Z,17.03
2019-06-20T05:48:16.419Z,17.16
2019-06-20T05:49:16.492Z,17.20
2019-06-20T05:50:16.425Z,17.13
2019-06-20T05:51:16.435Z,17.21
2019-06-20T05:52:17.368Z,17.29
2019-06-20T05:53:16.503Z,17.46
2019-06-20T05:54:16.427Z,17.64
2019-06-20T05:55:16.503Z,17.79
2019-06-20T05:56:16.423Z,18.02
2019-06-20T05:57:16.437Z,18.05
2019-06-20T05:58:16.423Z,17.99
2019-06-20T05:59:16.523Z,17.91
2019-06-20T06:00:16.430Z,17.98
2019-06-20T06:01:16.442Z,18.17
2019-06-20T06:02:16.453Z,18.32
2019-06-20T06:03:16.509Z,18.47
2019-06-20T06:04:16.366Z,18.62
2019-06-20T06:05:16.496Z,18.73
2019-06-20T06:06:16.430Z,18.80
2019-06-20T06:07:16.428Z,18.91
2019-06-20T06:08:16.543Z,18.95
2019-06-20T06:09:16.463Z,18.91
2019-06-20T06:10:16.499Z,18.79
2019-06-20T06:11:16.714Z,18.81
2019-06-20T06:12:16.464Z,18.86
2019-06-20T06:13:16.490Z,18.77
2019-06-20T06:14:16.410Z,18.65
2019-06-20T06:15:16.427Z,18.68
2019-06-20T06:16:25.691Z,18.64
2019-06-20T06:17:16.430Z,18.75
2019-06-20T06:18:16.469Z,18.94
2019-06-20T06:19:16.505Z,19.16
2019-06-20T06:20:16.503Z,19.35
2019-06-20T06:21:16.505Z,19.39
2019-06-20T06:22:16.415Z,19.42
2019-06-20T06:23:16.497Z,19.39
2019-06-20T06:24:16.385Z,19.36
2019-06-20T06:25:16.456Z,19.29
2019-06-20T06:26:16.500Z,19.21
2019-06-20T06:27:16.444Z,19.24
2019-06-20T06:28:16.534Z,19.25
2019-06-20T06:29:16.437Z,19.32
2019-06-20T06:30:16.454Z,19.40
2019-06-20T06:31:16.452Z,19.58
2019-06-20T06:32:20.018Z,19.64
2019-06-20T06:33:16.396Z,19.65
2019-06-20T06:34:16.534Z,19.57
2019-06-20T06:35:16.521Z,19.62
2019-06-20T06:36:16.533Z,19.76
2019-06-20T06:37:16.530Z,19.91
2019-06-20T06:38:22.045Z,20.07
2019-06-20T06:39:16.528Z,20.24
2019-06-20T06:40:16.543Z,20.38
2019-06-20T06:41:16.498Z,20.49
2019-06-20T06:42:16.534Z,20.57
2019-06-20T06:43:16.466Z,20.73
2019-06-20T06:44:16.492Z,20.93
2019-06-20T06:45:16.398Z,20.98
2019-06-20T06:46:16.524Z,21.05
2019-06-20T06:47:16.451Z,21.18
2019-06-20T06:48:16.522Z,21.31
2019-06-20T06:49:16.482Z,21.42
2019-06-20T06:50:16.543Z,21.49
2019-06-20T06:51:16.513Z,21.51
2019-06-20T06:52:16.471Z,21.64
2019-06-20T06:53:16.427Z,21.61
2019-06-20T06:54:16.515Z,21.40
2019-06-20T06:55:16.443Z,21.22
2019-06-20T06:56:16.470Z,20.97
2019-06-20T06:57:16.532Z,20.79
2019-06-20T06:58:16.535Z,20.65
2019-06-20T06:59:16.531Z,20.49
2019-06-20T07:00:16.474Z,20.30
2019-06-20T07:01:16.612Z,20.21
2019-06-20T07:02:16.476Z,20.24
2019-06-20T07:03:16.534Z,20.30
2019-06-20T07:04:16.464Z,20.28
2019-06-20T07:05:16.449Z,20.20
2019-06-20T07:06:16.417Z,20.31
2019-06-20T07:07:16.466Z,20.46
2019-06-20T07:08:16.507Z,20.57
2019-06-20T07:09:16.473Z,20.68
2019-06-20T07:10:16.450Z,20.79
2019-06-20T07:11:16.469Z,20.86
2019-06-20T07:12:16.481Z,20.93
2019-06-20T07:13:16.471Z,20.98
2019-06-20T07:14:16.620Z,20.95
2019-06-20T07:15:16.477Z,21.09
2019-06-20T07:16:16.572Z,21.18
2019-06-20T07:17:16.553Z,21.27
2019-06-20T07:18:16.472Z,21.24
2019-06-20T07:19:16.481Z,21.24
2019-06-20T07:20:16.492Z,21.34
2019-06-20T07:21:16.481Z,21.46
2019-06-20T07:22:16.500Z,21.65
2019-06-20T07:23:16.734Z,21.98
2019-06-20T07:24:16.548Z,22.12
2019-06-20T07:25:16.504Z,22.30
2019-06-20T07:26:16.563Z,22.61
2019-06-20T07:27:16.500Z,23.01
2019-06-20T07:28:16.493Z,23.23
2019-06-20T07:29:16.567Z,23.37
2019-06-20T07:30:16.557Z,23.42
2019-06-20T07:31:16.569Z,23.41
2019-06-20T07:32:16.570Z,23.28
2019-06-20T07:33:16.512Z,23.13
2019-06-20T07:34:16.515Z,22.95
2019-06-20T07:35:16.569Z,23.06
2019-06-20T07:36:16.569Z,23.01
2019-06-20T07:37:16.571Z,22.64
2019-06-20T07:38:16.505Z,22.61
2019-06-20T07:39:16.577Z,22.64
2019-06-20T07:40:16.571Z,22.65
2019-06-20T07:41:16.572Z,22.70
2019-06-20T07:42:16.551Z,22.77
2019-06-20T07:43:16.604Z,23.12
2019-06-20T07:44:16.577Z,23.39
2019-06-20T07:45:16.511Z,23.64
2019-06-20T07:46:16.566Z,23.72
2019-06-20T07:47:17.834Z,23.74
2019-06-20T07:48:16.498Z,23.67
2019-06-20T07:49:16.588Z,23.71
2019-06-20T07:50:16.603Z,23.80
2019-06-20T07:51:16.589Z,24.07
2019-06-20T07:52:16.497Z,24.27
2019-06-20T07:53:16.506Z,24.36
2019-06-20T07:54:16.576Z,24.31
2019-06-20T07:55:16.515Z,23.87
2019-06-20T07:56:16.618Z,23.53
2019-06-20T07:57:16.584Z,23.35
2019-06-20T07:58:16.545Z,22.95
2019-06-20T07:59:16.591Z,22.75
2019-06-20T08:00:16.608Z,22.67
2019-06-20T08:01:16.540Z,22.50
2019-06-20T08:02:16.530Z,22.46
2019-06-20T08:03:16.572Z,22.28
2019-06-20T08:04:16.531Z,22.17
2019-06-20T08:05:16.573Z,21.98
2019-06-20T08:06:16.582Z,21.76
2019-06-20T08:07:16.466Z,21.73
2019-06-20T08:08:16.576Z,21.79
2019-06-20T08:09:16.480Z,21.90
2019-06-20T08:10:16.579Z,22.13
2019-06-20T08:11:16.543Z,22.31
2019-06-20T08:12:16.520Z,22.34
2019-06-20T08:13:16.472Z,22.45
2019-06-20T08:14:16.586Z,22.50
2019-06-20T08:15:16.525Z,22.49
2019-06-20T08:16:16.516Z,22.54
2019-06-20T08:17:16.520Z,22.43
2019-06-20T08:18:16.500Z,22.27
2019-06-20T08:19:16.537Z,22.30
2019-06-20T08:20:16.594Z,22.21
2019-06-20T08:21:16.609Z,22.08
2019-06-20T08:22:16.507Z,21.94
2019-06-20T08:23:16.602Z,21.89
2019-06-20T08:24:16.563Z,21.86
2019-06-20T08:25:16.600Z,21.94
2019-06-20T08:26:16.609Z,22.06
2019-06-20T08:27:16.543Z,22.16
2019-06-20T08:28:16.608Z,22.30
2019-06-20T08:29:21.213Z,22.32
2019-06-20T08:30:16.685Z,22.41
2019-06-20T08:31:16.617Z,22.53
2019-06-20T08:32:16.624Z,22.64
2019-06-20T08:33:16.559Z,22.64
2019-06-20T08:34:16.615Z,22.63
2019-06-20T08:35:16.633Z,22.68
2019-06-20T08:36:16.548Z,22.71
2019-06-20T08:37:16.547Z,22.67
2019-06-20T08:38:16.631Z,22.68
2019-06-20T08:39:16.635Z,22.68
2019-06-20T08:40:16.550Z,22.46
2019-06-20T08:41:16.547Z,22.42
2019-06-20T08:42:16.619Z,22.56
2019-06-20T08:43:16.636Z,22.65
2019-06-20T08:44:16.549Z,22.65
2019-06-20T08:45:16.632Z,22.63
2019-06-20T08:46:16.559Z,22.59
2019-06-20T08:47:16.626Z,22.59
2019-06-20T08:48:16.569Z,22.42
2019-06-20T08:49:16.620Z,22.31
2019-06-20T08:50:16.559Z,22.21
2019-06-20T08:51:16.554Z,22.09
2019-06-20T08:52:16.663Z,22.10
2019-06-20T08:53:16.628Z,22.10
2019-06-20T08:54:16.582Z,22.09
2019-06-20T08:55:16.622Z,22.12
2019-06-20T08:56:16.524Z,22.00
2019-06-20T08:57:16.613Z,21.96
2019-06-20T08:58:16.557Z,21.80
2019-06-20T08:59:24.249Z,21.78
2019-06-20T09:00:16.622Z,21.67
2019-06-20T09:01:16.504Z,21.69
2019-06-20T09:02:16.566Z,21.89
2019-06-20T09:03:16.561Z,22.14
2019-06-20T09:04:16.567Z,22.49
2019-06-20T09:05:16.571Z,22.86
2019-06-20T09:06:16.600Z,23.33
2019-06-20T09:07:16.641Z,23.76
2019-06-20T09:08:16.644Z,24.22
2019-06-20T09:09:16.575Z,24.75
2019-06-20T09:10:16.678Z,24.93
2019-06-20T09:11:16.643Z,25.06
2019-06-20T09:12:16.572Z,25.01
2019-06-20T09:13:16.677Z,25.12
2019-06-20T09:14:16.571Z,25.00
2019-06-20T09:15:16.650Z,24.70
2019-06-20T09:16:24.452Z,24.45
2019-06-20T09:17:16.646Z,24.23
2019-06-20T09:18:16.671Z,23.96
2019-06-20T09:19:16.586Z,23.71
2019-06-20T09:20:16.651Z,23.35
2019-06-20T09:21:16.649Z,23.13
2019-06-20T09:22:16.595Z,22.90
2019-06-20T09:23:16.705Z,22.79
2019-06-20T09:24:16.650Z,22.68
2019-06-20T09:25:16.528Z,22.57
2019-06-20T09:26:16.565Z,22.57
2019-06-20T09:27:16.641Z,22.77
2019-06-20T09:28:16.544Z,22.93
2019-06-20T09:29:16.646Z,23.26
2019-06-20T09:30:16.592Z,23.47
2019-06-20T09:31:16.644Z,23.75
2019-06-20T09:32:16.551Z,24.02
2019-06-20T09:33:16.590Z,24.11
2019-06-20T09:34:16.572Z,24.23
2019-06-20T09:35:16.653Z,24.31
2019-06-20T09:36:16.554Z,24.26
2019-06-20T09:37:16.595Z,24.44
2019-06-20T09:38:16.587Z,24.37
2019-06-20T09:39:16.579Z,24.42
2019-06-20T09:40:16.595Z,24.63
2019-06-20T09:41:16.577Z,24.64
2019-06-20T09:42:16.656Z,24.49
2019-06-20T09:43:27.082Z,24.66
2019-06-20T09:44:16.662Z,24.85
2019-06-20T09:45:16.595Z,25.02
2019-06-20T09:46:16.658Z,24.79
2019-06-20T09:47:16.546Z,24.34
2019-06-20T09:48:16.631Z,24.22
2019-06-20T09:49:16.593Z,23.89
2019-06-20T09:50:16.538Z,23.67
2019-06-20T09:51:16.622Z,23.50
2019-06-20T09:52:16.657Z,23.49
2019-06-20T09:53:16.607Z,23.56
2019-06-20T09:54:16.575Z,23.75
2019-06-20T09:55:16.590Z,24.01
2019-06-20T09:56:16.665Z,24.36
2019-06-20T09:57:16.600Z,24.64
2019-06-20T09:58:16.585Z,24.74
2019-06-20T09:59:27.157Z,24.37
2019-06-20T10:00:16.666Z,24.33
2019-06-20T10:01:16.592Z,24.20
2019-06-20T10:02:16.670Z,23.98
2019-06-20T10:03:16.585Z,23.67
2019-06-20T10:04:16.603Z,23.37
2019-06-20T10:05:16.609Z,23.04
2019-06-20T10:06:16.688Z,22.87
2019-06-20T10:07:16.684Z,22.82
2019-06-20T10:08:16.686Z,22.82
2019-06-20T10:09:16.713Z,22.68
2019-06-20T10:10:16.687Z,22.65
2019-06-20T10:11:16.621Z,22.76
2019-06-20T10:12:16.698Z,22.83
2019-06-20T10:13:16.688Z,22.82
2019-06-20T10:14:16.689Z,22.86
2019-06-20T10:15:16.710Z,22.84
2019-06-20T10:16:16.694Z,22.70
2019-06-20T10:17:16.695Z,22.76
2019-06-20T10:18:16.631Z,22.79
2019-06-20T10:19:16.639Z,22.80
2019-06-20T10:20:16.694Z,22.76
2019-06-20T10:21:16.707Z,22.88
2019-06-20T10:22:16.698Z,23.13
2019-06-20T10:23:16.626Z,23.39
2019-06-20T10:24:16.635Z,23.72
2019-06-20T10:25:16.630Z,23.91
2019-06-20T10:26:16.638Z,24.02
2019-06-20T10:27:16.649Z,24.00
2019-06-20T10:28:16.638Z,23.90
2019-06-20T10:29:16.638Z,23.78
2019-06-20T10:30:16.659Z,23.72
2019-06-20T10:31:16.639Z,23.68
2019-06-20T10:32:16.701Z,23.72
2019-06-20T10:33:16.642Z,23.75
2019-06-20T10:34:16.642Z,23.76
2019-06-20T10:35:16.702Z,23.86
2019-06-20T10:36:16.644Z,23.91
2019-06-20T10:37:16.645Z,24.04
2019-06-20T10:38:16.641Z,24.19
2019-06-20T10:39:16.647Z,24.34
2019-06-20T10:40:16.713Z,24.38
2019-06-20T10:41:16.718Z,24.71
2019-06-20T10:42:16.645Z,24.95
2019-06-20T10:43:16.711Z,25.08
2019-06-20T10:44:16.607Z,25.29
2019-06-20T10:45:16.707Z,25.44
2019-06-20T10:46:16.638Z,25.63
2019-06-20T10:47:28.925Z,25.60
2019-06-20T10:48:16.712Z,25.63
2019-06-20T10:49:16.706Z,25.67
2019-06-20T10:50:16.707Z,25.70
2019-06-20T10:51:16.642Z,25.75
2019-06-20T10:52:16.707Z,25.48
2019-06-20T10:53:16.635Z,25.71
2019-06-20T10:54:16.638Z,25.84
2019-06-20T10:55:16.622Z,25.75
2019-06-20T10:56:16.664Z,25.73
2019-06-20T10:57:16.724Z,25.60
2019-06-20T10:58:16.666Z,25.74
2019-06-20T10:59:16.730Z,25.77
2019-06-20T11:00:29.663Z,25.71
2019-06-20T11:01:16.727Z,25.57
2019-06-20T11:02:16.684Z,25.38
2019-06-20T11:03:16.662Z,25.15
2019-06-20T11:04:16.737Z,25.19
2019-06-20T11:05:16.646Z,25.15
2019-06-20T11:06:16.653Z,25.12
2019-06-20T11:07:16.654Z,25.12
2019-06-20T11:08:16.692Z,25.00
2019-06-20T11:09:16.654Z,24.75
2019-06-20T11:10:16.654Z,24.64
2019-06-20T11:11:16.721Z,24.47
2019-06-20T11:12:16.651Z,24.45
2019-06-20T11:13:16.740Z,24.33
2019-06-20T11:14:16.662Z,24.54
2019-06-20T11:15:16.731Z,24.79
2019-06-20T11:16:16.662Z,25.22
2019-06-20T11:17:16.728Z,25.26
2019-06-20T11:18:16.728Z,25.11
2019-06-20T11:19:16.730Z,25.08
2019-06-20T11:20:16.818Z,24.93
2019-06-20T11:21:16.740Z,24.98
2019-06-20T11:22:16.659Z,25.24
2019-06-20T11:23:16.732Z,25.37
2019-06-20T11:24:16.733Z,25.64
2019-06-20T11:25:19.111Z,25.95
2019-06-20T11:26:16.695Z,26.22
2019-06-20T11:27:16.746Z,26.34
2019-06-20T11:28:16.748Z,26.38
2019-06-20T11:29:16.755Z,26.24
2019-06-20T11:30:16.677Z,26.15
2019-06-20T11:31:16.748Z,26.26
2019-06-20T11:32:16.686Z,26.13
2019-06-20T11:33:16.700Z,25.97
2019-06-20T11:34:16.683Z,25.77
2019-06-20T11:35:16.745Z,25.75
2019-06-20T11:36:16.664Z,25.71
2019-06-20T11:37:16.675Z,25.42
2019-06-20T11:38:16.738Z,25.24
2019-06-20T11:39:16.676Z,25.38
2019-06-20T11:40:16.777Z,25.53
2019-06-20T11:41:16.697Z,25.93
2019-06-20T11:42:16.703Z,26.13
2019-06-20T11:43:16.762Z,26.38
2019-06-20T11:44:16.676Z,26.71
2019-06-20T11:45:16.687Z,26.84
2019-06-20T11:46:16.766Z,26.62
2019-06-20T11:47:16.768Z,26.84
2019-06-20T11:48:16.769Z,27.04
2019-06-20T11:49:16.769Z,27.22
2019-06-20T11:50:16.693Z,27.26
2019-06-20T11:51:16.771Z,27.26
2019-06-20T11:52:16.719Z,27.46
2019-06-20T11:53:16.701Z,27.52
2019-06-20T11:54:16.766Z,27.48
2019-06-20T11:55:16.765Z,27.25
2019-06-20T11:56:16.706Z,27.32
2019-06-20T11:57:16.773Z,27.59
2019-06-20T11:58:16.775Z,27.71
2019-06-20T11:59:16.667Z,27.23
2019-06-20T12:00:16.769Z,27.19
2019-06-20T12:01:16.709Z,27.33
2019-06-20T12:02:16.769Z,27.50
2019-06-20T12:03:16.772Z,27.62
2019-06-20T12:04:16.774Z,27.63
2019-06-20T12:05:16.765Z,27.59
2019-06-20T12:06:16.776Z,27.66
2019-06-20T12:07:16.775Z,27.22
2019-06-20T12:08:16.791Z,27.26
2019-06-20T12:09:16.783Z,27.41
2019-06-20T12:10:16.709Z,27.33
2019-06-20T12:11:16.779Z,27.04
2019-06-20T12:12:16.781Z,26.82
2019-06-20T12:13:16.783Z,26.68
2019-06-20T12:14:16.803Z,26.36
2019-06-20T12:15:16.771Z,26.38
2019-06-20T12:16:16.777Z,26.47
2019-06-20T12:17:16.739Z,26.54
2019-06-20T12:18:16.707Z,26.52
2019-06-20T12:19:16.779Z,26.13
2019-06-20T12:20:16.782Z,26.00
2019-06-20T12:21:16.786Z,25.84
2019-06-20T12:22:16.780Z,25.59
2019-06-20T12:23:16.703Z,25.64
2019-06-20T12:24:16.754Z,25.82
2019-06-20T12:25:16.836Z,25.89
2019-06-20T12:26:16.712Z,25.95
2019-06-20T12:27:16.709Z,25.97
2019-06-20T12:28:16.715Z,26.32
2019-06-20T12:29:16.695Z,26.49
2019-06-20T12:30:16.799Z,26.45
2019-06-20T12:31:19.764Z,26.44
2019-06-20T12:32:16.716Z,26.58
2019-06-20T12:33:16.718Z,26.49
2019-06-20T12:34:16.724Z,26.47
2019-06-20T12:35:16.788Z,26.26
2019-06-20T12:36:16.788Z,26.38
2019-06-20T12:37:16.717Z,26.78
2019-06-20T12:38:16.714Z,27.03
2019-06-20T12:39:16.910Z,27.21
2019-06-20T12:40:16.721Z,27.14
2019-06-20T12:41:16.788Z,26.95
2019-06-20T12:42:16.790Z,26.70
2019-06-20T12:43:16.728Z,26.71
2019-06-20T12:44:16.691Z,26.48
2019-06-20T12:45:16.739Z,26.41
2019-06-20T12:46:16.812Z,26.33
2019-06-20T12:47:16.804Z,26.29
2019-06-20T12:48:16.809Z,26.37
2019-06-20T12:49:16.743Z,26.49
2019-06-20T12:50:16.816Z,26.34
2019-06-20T12:51:16.810Z,26.26
2019-06-20T12:52:16.753Z,26.40